sensor_id;sensor_type;location;lat;lon;timestamp;P1;durP1;ratioP1;P2;durP2;ratioP2
71562;SDS011;59391;52.504;13.438;2023-10-13T00:00:47;9.80;;;4.50;;
71562;SDS011;59391;52.504;13.438;2023-10-13T00:03:12;9.10;;;4.50;;
71562;SDS011;59391;52.504;13.438;2023-10-13T00:05:41;8.40;;;4.63;;
71562;SDS011;59391;52.504;13.438;2023-10-13T00:08:08;7.93;;;3.90;;
71562;SDS011;59391;52.504;13.438;2023-10-13T00:10:35;9.85;;;4.20;;
71562;SDS011;59391;52.504;13.438;2023-10-13T00:13:01;9.27;;;4.07;;
71562;SDS011;59391;52.504;13.438;2023-10-13T00:15:33;6.47;;;4.18;;
71562;SDS011;59391;52.504;13.438;2023-10-13T00:18:11;6.38;;;4.10;;
71562;SDS011;59391;52.504;13.438;2023-10-13T00:20:40;8.30;;;4.40;;
71562;SDS011;59391;52.504;13.438;2023-10-13T00:23:15;7.40;;;3.90;;
71562;SDS011;59391;52.504;13.438;2023-10-13T00:25:46;7.32;;;4.20;;
71562;SDS011;59391;52.504;13.438;2023-10-13T00:28:15;8.25;;;4.38;;
71562;SDS011;59391;52.504;13.438;2023-10-13T00:30:51;7.75;;;4.13;;
71562;SDS011;59391;52.504;13.438;2023-10-13T00:33:39;8.52;;;4.13;;
71562;SDS011;59391;52.504;13.438;2023-10-13T00:36:07;8.55;;;3.95;;
71562;SDS011;59391;52.504;13.438;2023-10-13T00:38:35;8.88;;;4.28;;
71562;SDS011;59391;52.504;13.438;2023-10-13T00:41:02;7.45;;;4.05;;
71562;SDS011;59391;52.504;13.438;2023-10-13T00:43:46;8.10;;;3.90;;
71562;SDS011;59391;52.504;13.438;2023-10-13T00:46:29;8.75;;;4.18;;
71562;SDS011;59391;52.504;13.438;2023-10-13T00:48:58;7.03;;;4.05;;
71562;SDS011;59391;52.504;13.438;2023-10-13T00:51:26;9.13;;;4.35;;
71562;SDS011;59391;52.504;13.438;2023-10-13T00:54:01;8.15;;;4.22;;
71562;SDS011;59391;52.504;13.438;2023-10-13T00:56:32;12.70;;;4.78;;
71562;SDS011;59391;52.504;13.438;2023-10-13T00:58:59;8.38;;;4.97;;
71562;SDS011;59391;52.504;13.438;2023-10-13T01:01:27;8.82;;;4.30;;
71562;SDS011;59391;52.504;13.438;2023-10-13T01:03:55;10.77;;;4.82;;
71562;SDS011;59391;52.504;13.438;2023-10-13T01:06:24;10.48;;;4.55;;
71562;SDS011;59391;52.504;13.438;2023-10-13T01:11:46;8.80;;;4.53;;
71562;SDS011;59391;52.504;13.438;2023-10-13T01:14:17;8.32;;;4.88;;
71562;SDS011;59391;52.504;13.438;2023-10-13T01:16:45;8.50;;;4.85;;
71562;SDS011;59391;52.504;13.438;2023-10-13T01:19:13;8.05;;;5.10;;
71562;SDS011;59391;52.504;13.438;2023-10-13T01:21:47;10.07;;;5.00;;
71562;SDS011;59391;52.504;13.438;2023-10-13T01:24:13;8.38;;;4.90;;
71562;SDS011;59391;52.504;13.438;2023-10-13T01:26:42;10.20;;;5.18;;
71562;SDS011;59391;52.504;13.438;2023-10-13T01:29:08;8.35;;;4.88;;
71562;SDS011;59391;52.504;13.438;2023-10-13T01:31:38;8.65;;;4.80;;
71562;SDS011;59391;52.504;13.438;2023-10-13T01:34:14;8.27;;;5.13;;
71562;SDS011;59391;52.504;13.438;2023-10-13T01:36:54;10.07;;;4.95;;
71562;SDS011;59391;52.504;13.438;2023-10-13T01:39:22;10.05;;;5.10;;
71562;SDS011;59391;52.504;13.438;2023-10-13T01:41:53;9.30;;;4.82;;
71562;SDS011;59391;52.504;13.438;2023-10-13T01:44:20;8.60;;;5.05;;
71562;SDS011;59391;52.504;13.438;2023-10-13T01:46:53;9.73;;;4.97;;
71562;SDS011;59391;52.504;13.438;2023-10-13T01:49:19;9.23;;;5.20;;
71562;SDS011;59391;52.504;13.438;2023-10-13T01:51:46;8.43;;;5.40;;
71562;SDS011;59391;52.504;13.438;2023-10-13T01:54:12;7.82;;;5.30;;
71562;SDS011;59391;52.504;13.438;2023-10-13T01:56:40;10.80;;;4.93;;
71562;SDS011;59391;52.504;13.438;2023-10-13T01:59:11;9.15;;;5.30;;
71562;SDS011;59391;52.504;13.438;2023-10-13T02:01:38;10.20;;;5.15;;
71562;SDS011;59391;52.504;13.438;2023-10-13T02:04:05;11.53;;;5.50;;
71562;SDS011;59391;52.504;13.438;2023-10-13T02:06:31;10.18;;;5.10;;
71562;SDS011;59391;52.504;13.438;2023-10-13T02:09:02;10.40;;;5.50;;
71562;SDS011;59391;52.504;13.438;2023-10-13T02:11:41;11.75;;;5.63;;
71562;SDS011;59391;52.504;13.438;2023-10-13T02:14:11;11.88;;;5.93;;
71562;SDS011;59391;52.504;13.438;2023-10-13T02:16:41;12.03;;;5.90;;
71562;SDS011;59391;52.504;13.438;2023-10-13T02:19:07;9.93;;;6.10;;
71562;SDS011;59391;52.504;13.438;2023-10-13T02:21:34;10.90;;;5.43;;
71562;SDS011;59391;52.504;13.438;2023-10-13T02:24:10;11.05;;;5.95;;
71562;SDS011;59391;52.504;13.438;2023-10-13T02:26:43;9.38;;;5.65;;
71562;SDS011;59391;52.504;13.438;2023-10-13T02:29:09;9.80;;;5.20;;
71562;SDS011;59391;52.504;13.438;2023-10-13T02:31:39;10.82;;;5.68;;
71562;SDS011;59391;52.504;13.438;2023-10-13T02:34:07;10.18;;;6.13;;
71562;SDS011;59391;52.504;13.438;2023-10-13T02:36:36;12.38;;;5.72;;
71562;SDS011;59391;52.504;13.438;2023-10-13T02:39:13;10.80;;;5.82;;
71562;SDS011;59391;52.504;13.438;2023-10-13T02:41:49;13.80;;;6.40;;
71562;SDS011;59391;52.504;13.438;2023-10-13T02:44:15;13.82;;;7.10;;
71562;SDS011;59391;52.504;13.438;2023-10-13T02:46:56;12.23;;;7.07;;
71562;SDS011;59391;52.504;13.438;2023-10-13T02:49:22;11.73;;;6.60;;
71562;SDS011;59391;52.504;13.438;2023-10-13T02:51:51;12.97;;;6.73;;
71562;SDS011;59391;52.504;13.438;2023-10-13T02:54:32;11.77;;;6.93;;
71562;SDS011;59391;52.504;13.438;2023-10-13T02:57:04;13.90;;;7.05;;
71562;SDS011;59391;52.504;13.438;2023-10-13T02:59:31;12.52;;;6.85;;
71562;SDS011;59391;52.504;13.438;2023-10-13T03:02:04;12.45;;;7.47;;
71562;SDS011;59391;52.504;13.438;2023-10-13T03:04:42;13.10;;;6.93;;
71562;SDS011;59391;52.504;13.438;2023-10-13T03:07:25;13.25;;;7.50;;
71562;SDS011;59391;52.504;13.438;2023-10-13T03:09:55;13.55;;;7.55;;
71562;SDS011;59391;52.504;13.438;2023-10-13T03:12:25;13.48;;;7.82;;
71562;SDS011;59391;52.504;13.438;2023-10-13T03:14:57;14.00;;;7.97;;
71562;SDS011;59391;52.504;13.438;2023-10-13T03:17:37;12.47;;;7.17;;
71562;SDS011;59391;52.504;13.438;2023-10-13T03:20:08;16.08;;;7.88;;
71562;SDS011;59391;52.504;13.438;2023-10-13T03:22:48;12.50;;;7.75;;
71562;SDS011;59391;52.504;13.438;2023-10-13T03:25:18;17.40;;;8.40;;
71562;SDS011;59391;52.504;13.438;2023-10-13T03:28:07;14.73;;;8.45;;
71562;SDS011;59391;52.504;13.438;2023-10-13T03:30:36;14.53;;;8.43;;
71562;SDS011;59391;52.504;13.438;2023-10-13T03:33:06;16.27;;;9.02;;
71562;SDS011;59391;52.504;13.438;2023-10-13T03:35:36;15.10;;;8.25;;
71562;SDS011;59391;52.504;13.438;2023-10-13T03:38:03;15.15;;;8.05;;
71562;SDS011;59391;52.504;13.438;2023-10-13T03:40:39;16.75;;;9.45;;
71562;SDS011;59391;52.504;13.438;2023-10-13T03:43:05;18.47;;;9.80;;
71562;SDS011;59391;52.504;13.438;2023-10-13T03:45:43;16.30;;;8.30;;
71562;SDS011;59391;52.504;13.438;2023-10-13T03:48:13;15.85;;;8.80;;
71562;SDS011;59391;52.504;13.438;2023-10-13T03:50:53;18.67;;;9.07;;
71562;SDS011;59391;52.504;13.438;2023-10-13T03:53:28;14.50;;;8.60;;
71562;SDS011;59391;52.504;13.438;2023-10-13T03:55:59;17.27;;;9.45;;
71562;SDS011;59391;52.504;13.438;2023-10-13T03:58:40;18.70;;;8.63;;
71562;SDS011;59391;52.504;13.438;2023-10-13T04:01:10;16.40;;;9.52;;
71562;SDS011;59391;52.504;13.438;2023-10-13T04:03:41;18.47;;;9.40;;
71562;SDS011;59391;52.504;13.438;2023-10-13T04:06:25;19.55;;;10.13;;
71562;SDS011;59391;52.504;13.438;2023-10-13T04:09:12;17.75;;;9.85;;
71562;SDS011;59391;52.504;13.438;2023-10-13T04:11:54;22.90;;;10.07;;
71562;SDS011;59391;52.504;13.438;2023-10-13T04:14:30;18.63;;;10.63;;
71562;SDS011;59391;52.504;13.438;2023-10-13T04:17:06;19.83;;;10.77;;
71562;SDS011;59391;52.504;13.438;2023-10-13T04:19:39;19.42;;;10.77;;
71562;SDS011;59391;52.504;13.438;2023-10-13T04:22:26;19.90;;;11.38;;
71562;SDS011;59391;52.504;13.438;2023-10-13T04:25:13;23.23;;;11.15;;
71562;SDS011;59391;52.504;13.438;2023-10-13T04:28:09;18.23;;;11.35;;
71562;SDS011;59391;52.504;13.438;2023-10-13T04:30:59;24.20;;;12.40;;
71562;SDS011;59391;52.504;13.438;2023-10-13T04:33:36;20.98;;;12.55;;
71562;SDS011;59391;52.504;13.438;2023-10-13T04:36:16;20.75;;;11.38;;
71562;SDS011;59391;52.504;13.438;2023-10-13T04:38:53;23.25;;;12.35;;
71562;SDS011;59391;52.504;13.438;2023-10-13T04:44:06;20.03;;;11.60;;
71562;SDS011;59391;52.504;13.438;2023-10-13T04:46:51;22.92;;;13.30;;
71562;SDS011;59391;52.504;13.438;2023-10-13T04:49:22;20.52;;;12.77;;
71562;SDS011;59391;52.504;13.438;2023-10-13T04:51:54;21.88;;;12.88;;
71562;SDS011;59391;52.504;13.438;2023-10-13T04:54:33;20.75;;;12.32;;
71562;SDS011;59391;52.504;13.438;2023-10-13T04:57:23;21.67;;;12.83;;
71562;SDS011;59391;52.504;13.438;2023-10-13T04:59:59;21.33;;;12.32;;
71562;SDS011;59391;52.504;13.438;2023-10-13T05:02:32;21.42;;;12.90;;
71562;SDS011;59391;52.504;13.438;2023-10-13T05:05:04;20.10;;;12.32;;
71562;SDS011;59391;52.504;13.438;2023-10-13T05:07:51;21.98;;;12.70;;
71562;SDS011;59391;52.504;13.438;2023-10-13T05:10:36;20.13;;;12.23;;
71562;SDS011;59391;52.504;13.438;2023-10-13T05:13:21;19.73;;;12.40;;
71562;SDS011;59391;52.504;13.438;2023-10-13T05:16:05;20.38;;;12.85;;
71562;SDS011;59391;52.504;13.438;2023-10-13T05:18:49;20.65;;;13.27;;
71562;SDS011;59391;52.504;13.438;2023-10-13T05:21:33;21.38;;;12.73;;
71562;SDS011;59391;52.504;13.438;2023-10-13T05:24:18;19.43;;;12.23;;
71562;SDS011;59391;52.504;13.438;2023-10-13T05:27:03;19.15;;;12.55;;
71562;SDS011;59391;52.504;13.438;2023-10-13T05:29:47;19.73;;;13.10;;
71562;SDS011;59391;52.504;13.438;2023-10-13T05:32:32;19.73;;;12.70;;
71562;SDS011;59391;52.504;13.438;2023-10-13T05:35:19;19.13;;;12.10;;
71562;SDS011;59391;52.504;13.438;2023-10-13T05:38:04;19.30;;;12.90;;
71562;SDS011;59391;52.504;13.438;2023-10-13T05:40:59;19.92;;;11.85;;
71562;SDS011;59391;52.504;13.438;2023-10-13T05:43:46;19.95;;;12.18;;
71562;SDS011;59391;52.504;13.438;2023-10-13T05:46:31;21.27;;;12.77;;
71562;SDS011;59391;52.504;13.438;2023-10-13T05:49:04;22.75;;;12.15;;
71562;SDS011;59391;52.504;13.438;2023-10-13T05:51:32;20.87;;;12.23;;
71562;SDS011;59391;52.504;13.438;2023-10-13T05:54:01;18.60;;;11.95;;
71562;SDS011;59391;52.504;13.438;2023-10-13T05:56:44;18.38;;;11.95;;
71562;SDS011;59391;52.504;13.438;2023-10-13T05:59:35;18.38;;;12.00;;
71562;SDS011;59391;52.504;13.438;2023-10-13T06:02:21;18.65;;;12.25;;
71562;SDS011;59391;52.504;13.438;2023-10-13T06:05:08;19.90;;;12.50;;
71562;SDS011;59391;52.504;13.438;2023-10-13T06:07:54;19.20;;;11.90;;
71562;SDS011;59391;52.504;13.438;2023-10-13T06:10:41;18.25;;;12.55;;
71562;SDS011;59391;52.504;13.438;2023-10-13T06:13:26;18.95;;;12.18;;
71562;SDS011;59391;52.504;13.438;2023-10-13T06:16:12;20.40;;;12.27;;
71562;SDS011;59391;52.504;13.438;2023-10-13T06:18:59;17.37;;;11.17;;
71562;SDS011;59391;52.504;13.438;2023-10-13T06:21:44;20.08;;;12.50;;
71562;SDS011;59391;52.504;13.438;2023-10-13T06:24:29;19.95;;;12.20;;
71562;SDS011;59391;52.504;13.438;2023-10-13T06:27:14;19.15;;;12.45;;
71562;SDS011;59391;52.504;13.438;2023-10-13T06:30:00;22.13;;;12.82;;
71562;SDS011;59391;52.504;13.438;2023-10-13T06:32:28;18.77;;;12.67;;
71562;SDS011;59391;52.504;13.438;2023-10-13T06:34:56;18.52;;;12.23;;
71562;SDS011;59391;52.504;13.438;2023-10-13T06:37:25;18.67;;;12.07;;
71562;SDS011;59391;52.504;13.438;2023-10-13T06:39:56;23.60;;;13.43;;
71562;SDS011;59391;52.504;13.438;2023-10-13T06:42:31;21.48;;;12.85;;
71562;SDS011;59391;52.504;13.438;2023-10-13T06:45:00;20.67;;;12.18;;
71562;SDS011;59391;52.504;13.438;2023-10-13T06:47:33;16.65;;;11.10;;
71562;SDS011;59391;52.504;13.438;2023-10-13T06:50:08;17.70;;;11.65;;
71562;SDS011;59391;52.504;13.438;2023-10-13T06:52:40;16.43;;;10.90;;
71562;SDS011;59391;52.504;13.438;2023-10-13T06:55:09;19.95;;;12.20;;
71562;SDS011;59391;52.504;13.438;2023-10-13T06:58:04;17.55;;;10.85;;
71562;SDS011;59391;52.504;13.438;2023-10-13T07:00:31;17.90;;;11.52;;
71562;SDS011;59391;52.504;13.438;2023-10-13T07:03:03;16.73;;;11.63;;
71562;SDS011;59391;52.504;13.438;2023-10-13T07:05:42;16.97;;;10.77;;
71562;SDS011;59391;52.504;13.438;2023-10-13T07:08:09;17.95;;;10.93;;
71562;SDS011;59391;52.504;13.438;2023-10-13T07:10:55;16.00;;;10.70;;
71562;SDS011;59391;52.504;13.438;2023-10-13T07:13:31;16.80;;;10.50;;
71562;SDS011;59391;52.504;13.438;2023-10-13T07:16:01;16.40;;;11.75;;
71562;SDS011;59391;52.504;13.438;2023-10-13T07:18:34;14.53;;;10.47;;
71562;SDS011;59391;52.504;13.438;2023-10-13T07:21:08;16.30;;;10.00;;
71562;SDS011;59391;52.504;13.438;2023-10-13T07:23:35;15.70;;;10.00;;
71562;SDS011;59391;52.504;13.438;2023-10-13T07:26:02;18.88;;;11.40;;
71562;SDS011;59391;52.504;13.438;2023-10-13T07:28:31;17.10;;;10.57;;
71562;SDS011;59391;52.504;13.438;2023-10-13T07:31:01;15.20;;;10.47;;
71562;SDS011;59391;52.504;13.438;2023-10-13T07:33:30;17.35;;;9.73;;
71562;SDS011;59391;52.504;13.438;2023-10-13T07:35:59;14.10;;;9.73;;
71562;SDS011;59391;52.504;13.438;2023-10-13T07:38:41;14.20;;;9.18;;
71562;SDS011;59391;52.504;13.438;2023-10-13T07:41:08;13.60;;;9.30;;
71562;SDS011;59391;52.504;13.438;2023-10-13T07:43:37;14.63;;;8.93;;
71562;SDS011;59391;52.504;13.438;2023-10-13T07:46:04;13.32;;;8.90;;
71562;SDS011;59391;52.504;13.438;2023-10-13T07:48:35;16.30;;;8.75;;
71562;SDS011;59391;52.504;13.438;2023-10-13T07:51:03;14.45;;;9.57;;
71562;SDS011;59391;52.504;13.438;2023-10-13T07:53:36;13.07;;;8.80;;
71562;SDS011;59391;52.504;13.438;2023-10-13T07:56:09;12.83;;;8.77;;
71562;SDS011;59391;52.504;13.438;2023-10-13T07:58:38;13.60;;;8.45;;
71562;SDS011;59391;52.504;13.438;2023-10-13T08:01:12;14.75;;;8.68;;
71562;SDS011;59391;52.504;13.438;2023-10-13T08:03:45;12.68;;;8.43;;
71562;SDS011;59391;52.504;13.438;2023-10-13T08:06:15;12.45;;;8.00;;
71562;SDS011;59391;52.504;13.438;2023-10-13T08:08:42;14.67;;;8.63;;
71562;SDS011;59391;52.504;13.438;2023-10-13T08:11:15;12.15;;;8.70;;
71562;SDS011;59391;52.504;13.438;2023-10-13T08:13:57;12.63;;;8.25;;
71562;SDS011;59391;52.504;13.438;2023-10-13T08:16:33;12.50;;;7.97;;
71562;SDS011;59391;52.504;13.438;2023-10-13T08:19:24;12.65;;;8.20;;
71562;SDS011;59391;52.504;13.438;2023-10-13T08:22:10;11.53;;;8.57;;
71562;SDS011;59391;52.504;13.438;2023-10-13T08:24:45;13.00;;;8.43;;
71562;SDS011;59391;52.504;13.438;2023-10-13T08:27:13;12.60;;;8.60;;
71562;SDS011;59391;52.504;13.438;2023-10-13T08:29:58;12.15;;;7.50;;
71562;SDS011;59391;52.504;13.438;2023-10-13T08:32:28;12.73;;;8.13;;
71562;SDS011;59391;52.504;13.438;2023-10-13T08:35:00;12.37;;;8.07;;
71562;SDS011;59391;52.504;13.438;2023-10-13T08:37:30;13.93;;;8.40;;
71562;SDS011;59391;52.504;13.438;2023-10-13T08:40:16;14.43;;;8.45;;
71562;SDS011;59391;52.504;13.438;2023-10-13T08:42:50;14.65;;;8.23;;
71562;SDS011;59391;52.504;13.438;2023-10-13T08:45:29;11.27;;;8.30;;
71562;SDS011;59391;52.504;13.438;2023-10-13T08:48:00;13.57;;;8.13;;
71562;SDS011;59391;52.504;13.438;2023-10-13T08:50:46;13.35;;;8.95;;
71562;SDS011;59391;52.504;13.438;2023-10-13T08:58:46;13.80;;;9.02;;
71562;SDS011;59391;52.504;13.438;2023-10-13T09:01:25;14.30;;;9.73;;
71562;SDS011;59391;52.504;13.438;2023-10-13T09:03:58;13.23;;;8.75;;
71562;SDS011;59391;52.504;13.438;2023-10-13T09:09:47;13.98;;;8.60;;
71562;SDS011;59391;52.504;13.438;2023-10-13T09:17:50;35.30;;;15.95;;
71562;SDS011;59391;52.504;13.438;2023-10-13T09:20:16;15.45;;;8.80;;
71562;SDS011;59391;52.504;13.438;2023-10-13T09:22:49;23.77;;;13.15;;
71562;SDS011;59391;52.504;13.438;2023-10-13T09:25:33;15.43;;;8.38;;
71562;SDS011;59391;52.504;13.438;2023-10-13T09:28:02;19.33;;;10.67;;
71562;SDS011;59391;52.504;13.438;2023-10-13T09:30:46;20.95;;;11.00;;
71562;SDS011;59391;52.504;13.438;2023-10-13T09:33:18;16.02;;;9.07;;
71562;SDS011;59391;52.504;13.438;2023-10-13T09:35:58;15.27;;;7.95;;
71562;SDS011;59391;52.504;13.438;2023-10-13T09:38:27;13.00;;;7.85;;
71562;SDS011;59391;52.504;13.438;2023-10-13T09:40:54;16.70;;;9.63;;
71562;SDS011;59391;52.504;13.438;2023-10-13T09:43:22;12.02;;;7.57;;
71562;SDS011;59391;52.504;13.438;2023-10-13T09:45:50;16.02;;;8.63;;
71562;SDS011;59391;52.504;13.438;2023-10-13T09:48:33;20.10;;;10.65;;
71562;SDS011;59391;52.504;13.438;2023-10-13T09:51:05;16.58;;;8.60;;
71562;SDS011;59391;52.504;13.438;2023-10-13T09:53:37;15.27;;;8.67;;
71562;SDS011;59391;52.504;13.438;2023-10-13T09:56:15;17.63;;;9.02;;
71562;SDS011;59391;52.504;13.438;2023-10-13T09:59:14;27.45;;;12.35;;
71562;SDS011;59391;52.504;13.438;2023-10-13T10:01:43;24.52;;;10.45;;
71562;SDS011;59391;52.504;13.438;2023-10-13T10:04:17;26.45;;;11.98;;
71562;SDS011;59391;52.504;13.438;2023-10-13T10:06:57;16.10;;;9.17;;
71562;SDS011;59391;52.504;13.438;2023-10-13T10:09:29;15.35;;;8.63;;
71562;SDS011;59391;52.504;13.438;2023-10-13T10:18:00;16.67;;;8.40;;
71562;SDS011;59391;52.504;13.438;2023-10-13T10:23:07;15.57;;;8.35;;
71562;SDS011;59391;52.504;13.438;2023-10-13T10:25:37;15.45;;;8.07;;
71562;SDS011;59391;52.504;13.438;2023-10-13T10:28:09;20.92;;;10.80;;
71562;SDS011;59391;52.504;13.438;2023-10-13T10:30:40;14.15;;;8.25;;
71562;SDS011;59391;52.504;13.438;2023-10-13T10:33:07;13.67;;;7.80;;
71562;SDS011;59391;52.504;13.438;2023-10-13T10:35:46;13.60;;;8.15;;
71562;SDS011;59391;52.504;13.438;2023-10-13T10:38:24;18.15;;;11.23;;
71562;SDS011;59391;52.504;13.438;2023-10-13T10:40:58;13.93;;;8.50;;
71562;SDS011;59391;52.504;13.438;2023-10-13T10:43:26;13.18;;;8.93;;
71562;SDS011;59391;52.504;13.438;2023-10-13T10:46:14;12.80;;;8.67;;
71562;SDS011;59391;52.504;13.438;2023-10-13T10:48:42;12.68;;;7.78;;
71562;SDS011;59391;52.504;13.438;2023-10-13T10:51:11;12.82;;;7.50;;
71562;SDS011;59391;52.504;13.438;2023-10-13T10:53:40;9.95;;;7.40;;
71562;SDS011;59391;52.504;13.438;2023-10-13T10:56:10;13.38;;;8.52;;
71562;SDS011;59391;52.504;13.438;2023-10-13T10:58:57;16.42;;;11.85;;
71562;SDS011;59391;52.504;13.438;2023-10-13T11:01:28;12.85;;;7.82;;
71562;SDS011;59391;52.504;13.438;2023-10-13T11:04:05;12.52;;;7.40;;
71562;SDS011;59391;52.504;13.438;2023-10-13T11:06:55;15.20;;;8.50;;
71562;SDS011;59391;52.504;13.438;2023-10-13T11:09:24;16.13;;;10.85;;
71562;SDS011;59391;52.504;13.438;2023-10-13T11:14:59;15.40;;;9.45;;
71562;SDS011;59391;52.504;13.438;2023-10-13T11:17:40;18.67;;;11.88;;
71562;SDS011;59391;52.504;13.438;2023-10-13T11:20:23;17.25;;;10.27;;
71562;SDS011;59391;52.504;13.438;2023-10-13T11:22:58;19.33;;;11.40;;
71562;SDS011;59391;52.504;13.438;2023-10-13T11:25:25;11.27;;;8.20;;
71562;SDS011;59391;52.504;13.438;2023-10-13T11:27:57;14.32;;;9.27;;
71562;SDS011;59391;52.504;13.438;2023-10-13T11:30:24;11.25;;;8.50;;
71562;SDS011;59391;52.504;13.438;2023-10-13T11:33:07;9.52;;;6.93;;
71562;SDS011;59391;52.504;13.438;2023-10-13T11:35:38;11.95;;;7.68;;
71562;SDS011;59391;52.504;13.438;2023-10-13T11:38:20;12.55;;;7.50;;
71562;SDS011;59391;52.504;13.438;2023-10-13T11:41:08;11.45;;;7.60;;
71562;SDS011;59391;52.504;13.438;2023-10-13T11:43:49;13.35;;;8.02;;
71562;SDS011;59391;52.504;13.438;2023-10-13T11:49:00;12.63;;;6.90;;
71562;SDS011;59391;52.504;13.438;2023-10-13T11:51:38;13.93;;;7.95;;
71562;SDS011;59391;52.504;13.438;2023-10-13T11:54:16;10.90;;;7.57;;
71562;SDS011;59391;52.504;13.438;2023-10-13T11:56:51;15.82;;;7.47;;
71562;SDS011;59391;52.504;13.438;2023-10-13T11:59:16;12.52;;;7.97;;
71562;SDS011;59391;52.504;13.438;2023-10-13T12:01:45;12.30;;;7.60;;
71562;SDS011;59391;52.504;13.438;2023-10-13T12:04:34;12.45;;;7.68;;
71562;SDS011;59391;52.504;13.438;2023-10-13T12:07:39;12.30;;;7.07;;
71562;SDS011;59391;52.504;13.438;2023-10-13T12:10:13;13.97;;;7.43;;
71562;SDS011;59391;52.504;13.438;2023-10-13T12:12:57;12.68;;;6.88;;
71562;SDS011;59391;52.504;13.438;2023-10-13T12:15:30;13.60;;;7.50;;
71562;SDS011;59391;52.504;13.438;2023-10-13T12:18:11;11.75;;;6.88;;
71562;SDS011;59391;52.504;13.438;2023-10-13T12:20:40;11.85;;;7.00;;
71562;SDS011;59391;52.504;13.438;2023-10-13T12:23:10;13.87;;;7.47;;
71562;SDS011;59391;52.504;13.438;2023-10-13T12:25:42;11.23;;;7.05;;
71562;SDS011;59391;52.504;13.438;2023-10-13T12:28:24;11.88;;;7.32;;
71562;SDS011;59391;52.504;13.438;2023-10-13T12:30:52;14.55;;;7.32;;
71562;SDS011;59391;52.504;13.438;2023-10-13T12:33:22;14.38;;;7.47;;
71562;SDS011;59391;52.504;13.438;2023-10-13T12:35:59;10.80;;;7.20;;
71562;SDS011;59391;52.504;13.438;2023-10-13T12:38:32;13.45;;;7.20;;
71562;SDS011;59391;52.504;13.438;2023-10-13T12:41:10;13.90;;;7.53;;
71562;SDS011;59391;52.504;13.438;2023-10-13T12:43:55;13.05;;;7.72;;
71562;SDS011;59391;52.504;13.438;2023-10-13T12:46:46;13.50;;;7.05;;
71562;SDS011;59391;52.504;13.438;2023-10-13T12:49:32;13.17;;;7.20;;
71562;SDS011;59391;52.504;13.438;2023-10-13T12:52:08;13.80;;;7.53;;
71562;SDS011;59391;52.504;13.438;2023-10-13T12:54:56;13.20;;;7.22;;
71562;SDS011;59391;52.504;13.438;2023-10-13T12:57:22;12.43;;;7.07;;
71562;SDS011;59391;52.504;13.438;2023-10-13T12:59:52;13.70;;;7.13;;
71562;SDS011;59391;52.504;13.438;2023-10-13T13:02:25;12.30;;;6.95;;
71562;SDS011;59391;52.504;13.438;2023-10-13T13:04:52;13.65;;;7.15;;
71562;SDS011;59391;52.504;13.438;2023-10-13T13:07:22;13.52;;;7.43;;
71562;SDS011;59391;52.504;13.438;2023-10-13T13:09:54;14.23;;;7.93;;
71562;SDS011;59391;52.504;13.438;2023-10-13T13:12:23;11.80;;;6.50;;
71562;SDS011;59391;52.504;13.438;2023-10-13T13:14:50;15.65;;;6.82;;
71562;SDS011;59391;52.504;13.438;2023-10-13T13:17:20;12.32;;;6.65;;
71562;SDS011;59391;52.504;13.438;2023-10-13T13:19:46;11.18;;;6.65;;
71562;SDS011;59391;52.504;13.438;2023-10-13T13:22:12;12.70;;;7.00;;
71562;SDS011;59391;52.504;13.438;2023-10-13T13:24:41;13.15;;;6.60;;
71562;SDS011;59391;52.504;13.438;2023-10-13T13:27:12;11.53;;;6.37;;
71562;SDS011;59391;52.504;13.438;2023-10-13T13:29:40;16.05;;;6.97;;
71562;SDS011;59391;52.504;13.438;2023-10-13T13:32:06;11.00;;;6.50;;
71562;SDS011;59391;52.504;13.438;2023-10-13T13:34:44;13.95;;;6.90;;
71562;SDS011;59391;52.504;13.438;2023-10-13T13:37:18;13.23;;;6.65;;
71562;SDS011;59391;52.504;13.438;2023-10-13T13:39:44;13.47;;;6.53;;
71562;SDS011;59391;52.504;13.438;2023-10-13T13:42:11;12.00;;;6.40;;
71562;SDS011;59391;52.504;13.438;2023-10-13T13:44:42;14.27;;;6.97;;
71562;SDS011;59391;52.504;13.438;2023-10-13T13:47:11;13.20;;;6.60;;
71562;SDS011;59391;52.504;13.438;2023-10-13T13:49:41;11.70;;;6.10;;
71562;SDS011;59391;52.504;13.438;2023-10-13T13:52:17;11.33;;;6.73;;
71562;SDS011;59391;52.504;13.438;2023-10-13T13:54:46;14.60;;;6.63;;
71562;SDS011;59391;52.504;13.438;2023-10-13T13:57:13;14.38;;;6.57;;
71562;SDS011;59391;52.504;13.438;2023-10-13T13:59:39;13.37;;;7.20;;
71562;SDS011;59391;52.504;13.438;2023-10-13T14:02:08;12.95;;;6.68;;
71562;SDS011;59391;52.504;13.438;2023-10-13T14:04:47;14.18;;;6.75;;
71562;SDS011;59391;52.504;13.438;2023-10-13T14:07:17;12.68;;;6.57;;
71562;SDS011;59391;52.504;13.438;2023-10-13T14:09:45;13.85;;;6.38;;
71562;SDS011;59391;52.504;13.438;2023-10-13T14:12:16;13.20;;;6.30;;
71562;SDS011;59391;52.504;13.438;2023-10-13T14:15:05;15.05;;;6.43;;
71562;SDS011;59391;52.504;13.438;2023-10-13T14:17:44;13.95;;;6.50;;
71562;SDS011;59391;52.504;13.438;2023-10-13T14:20:14;14.20;;;6.55;;
71562;SDS011;59391;52.504;13.438;2023-10-13T14:22:43;14.70;;;7.07;;
71562;SDS011;59391;52.504;13.438;2023-10-13T14:25:12;12.93;;;6.90;;
71562;SDS011;59391;52.504;13.438;2023-10-13T14:27:39;13.82;;;6.40;;
71562;SDS011;59391;52.504;13.438;2023-10-13T14:30:08;13.82;;;6.25;;
71562;SDS011;59391;52.504;13.438;2023-10-13T14:32:34;15.18;;;6.57;;
71562;SDS011;59391;52.504;13.438;2023-10-13T14:35:05;15.45;;;6.38;;
71562;SDS011;59391;52.504;13.438;2023-10-13T14:37:40;14.67;;;6.50;;
71562;SDS011;59391;52.504;13.438;2023-10-13T14:40:06;11.93;;;6.30;;
71562;SDS011;59391;52.504;13.438;2023-10-13T14:42:38;15.45;;;6.15;;
71562;SDS011;59391;52.504;13.438;2023-10-13T14:45:05;11.80;;;6.30;;
71562;SDS011;59391;52.504;13.438;2023-10-13T14:47:39;15.43;;;5.97;;
71562;SDS011;59391;52.504;13.438;2023-10-13T14:50:09;15.25;;;6.38;;
71562;SDS011;59391;52.504;13.438;2023-10-13T14:52:46;11.10;;;6.38;;
71562;SDS011;59391;52.504;13.438;2023-10-13T14:55:13;12.18;;;6.13;;
71562;SDS011;59391;52.504;13.438;2023-10-13T14:57:49;14.77;;;5.95;;
71562;SDS011;59391;52.504;13.438;2023-10-13T15:00:16;12.47;;;6.60;;
71562;SDS011;59391;52.504;13.438;2023-10-13T15:02:50;15.25;;;6.57;;
71562;SDS011;59391;52.504;13.438;2023-10-13T15:05:19;13.43;;;6.70;;
71562;SDS011;59391;52.504;13.438;2023-10-13T15:07:45;13.68;;;6.88;;
71562;SDS011;59391;52.504;13.438;2023-10-13T15:10:14;11.73;;;6.70;;
71562;SDS011;59391;52.504;13.438;2023-10-13T15:12:42;14.90;;;7.25;;
71562;SDS011;59391;52.504;13.438;2023-10-13T15:15:09;12.75;;;6.45;;
71562;SDS011;59391;52.504;13.438;2023-10-13T15:17:40;11.53;;;5.87;;
71562;SDS011;59391;52.504;13.438;2023-10-13T15:20:06;12.48;;;6.40;;
71562;SDS011;59391;52.504;13.438;2023-10-13T15:22:34;16.83;;;6.82;;
71562;SDS011;59391;52.504;13.438;2023-10-13T15:25:05;12.15;;;6.45;;
71562;SDS011;59391;52.504;13.438;2023-10-13T15:27:42;13.82;;;6.55;;
71562;SDS011;59391;52.504;13.438;2023-10-13T15:30:15;12.20;;;6.87;;
71562;SDS011;59391;52.504;13.438;2023-10-13T15:32:50;14.65;;;6.82;;
71562;SDS011;59391;52.504;13.438;2023-10-13T15:35:18;12.85;;;6.88;;